sensor_id;sensor_type;location;lat;lon;timestamp;temperature;humidity
6724;DHT22;3399;52.530;13.304;2023-07-31T00:00:00;16.30;99.90
6724;DHT22;3399;52.530;13.304;2023-07-31T00:02:25;16.20;99.90
6724;DHT22;3399;52.530;13.304;2023-07-31T00:04:51;16.30;99.90
6724;DHT22;3399;52.530;13.304;2023-07-31T00:07:16;16.30;99.90
6724;DHT22;3399;52.530;13.304;2023-07-31T00:09:42;16.30;99.90
6724;DHT22;3399;52.530;13.304;2023-07-31T00:12:08;16.40;99.90
6724;DHT22;3399;52.530;13.304;2023-07-31T00:14:33;16.40;99.90
6724;DHT22;3399;52.530;13.304;2023-07-31T00:16:59;16.50;99.90
6724;DHT22;3399;52.530;13.304;2023-07-31T00:19:24;16.40;99.90
6724;DHT22;3399;52.530;13.304;2023-07-31T00:21:50;16.40;99.90
6724;DHT22;3399;52.530;13.304;2023-07-31T00:24:15;16.40;99.90
6724;DHT22;3399;52.530;13.304;2023-07-31T00:26:41;16.40;99.90
6724;DHT22;3399;52.530;13.304;2023-07-31T00:29:06;16.40;99.90
6724;DHT22;3399;52.530;13.304;2023-07-31T00:31:32;16.50;99.90
6724;DHT22;3399;52.530;13.304;2023-07-31T00:33:57;16.40;99.90
6724;DHT22;3399;52.530;13.304;2023-07-31T00:36:23;16.40;99.90
6724;DHT22;3399;52.530;13.304;2023-07-31T00:38:48;16.40;99.90
6724;DHT22;3399;52.530;13.304;2023-07-31T00:41:14;16.30;99.90
6724;DHT22;3399;52.530;13.304;2023-07-31T00:43:40;16.40;99.90
6724;DHT22;3399;52.530;13.304;2023-07-31T00:46:06;16.30;99.90
6724;DHT22;3399;52.530;13.304;2023-07-31T00:48:32;16.30;99.90
6724;DHT22;3399;52.530;13.304;2023-07-31T00:50:57;16.40;99.90
6724;DHT22;3399;52.530;13.304;2023-07-31T00:53:24;16.40;99.90
6724;DHT22;3399;52.530;13.304;2023-07-31T00:55:51;16.60;99.90
6724;DHT22;3399;52.530;13.304;2023-07-31T00:58:16;16.60;99.90
6724;DHT22;3399;52.530;13.304;2023-07-31T01:00:42;16.70;99.90
6724;DHT22;3399;52.530;13.304;2023-07-31T01:03:08;16.70;99.90
6724;DHT22;3399;52.530;13.304;2023-07-31T01:05:46;16.60;99.90
6724;DHT22;3399;52.530;13.304;2023-07-31T01:08:41;16.60;99.90
6724;DHT22;3399;52.530;13.304;2023-07-31T01:11:22;16.60;99.90
6724;DHT22;3399;52.530;13.304;2023-07-31T01:13:50;16.60;99.90
6724;DHT22;3399;52.530;13.304;2023-07-31T01:16:15;16.60;99.90
6724;DHT22;3399;52.530;13.304;2023-07-31T01:18:41;16.70;99.90
6724;DHT22;3399;52.530;13.304;2023-07-31T01:21:27;16.80;99.90
6724;DHT22;3399;52.530;13.304;2023-07-31T01:27:28;16.70;99.90
6724;DHT22;3399;52.530;13.304;2023-07-31T01:30:16;16.70;99.90
6724;DHT22;3399;52.530;13.304;2023-07-31T01:32:47;16.80;99.90
6724;DHT22;3399;52.530;13.304;2023-07-31T01:35:13;16.60;99.90
6724;DHT22;3399;52.530;13.304;2023-07-31T01:37:39;16.60;99.90
6724;DHT22;3399;52.530;13.304;2023-07-31T01:40:05;16.60;99.90
6724;DHT22;3399;52.530;13.304;2023-07-31T01:42:31;16.70;99.90
6724;DHT22;3399;52.530;13.304;2023-07-31T01:44:57;16.70;99.90
6724;DHT22;3399;52.530;13.304;2023-07-31T01:47:22;16.80;99.90
6724;DHT22;3399;52.530;13.304;2023-07-31T01:49:49;16.70;99.90
6724;DHT22;3399;52.530;13.304;2023-07-31T01:52:14;16.80;99.90
6724;DHT22;3399;52.530;13.304;2023-07-31T01:54:39;16.80;99.90
6724;DHT22;3399;52.530;13.304;2023-07-31T01:57:05;16.60;99.90
6724;DHT22;3399;52.530;13.304;2023-07-31T01:59:31;16.60;99.90
6724;DHT22;3399;52.530;13.304;2023-07-31T02:01:56;16.50;99.90
6724;DHT22;3399;52.530;13.304;2023-07-31T02:04:22;16.60;99.90
6724;DHT22;3399;52.530;13.304;2023-07-31T02:06:47;16.60;99.90
6724;DHT22;3399;52.530;13.304;2023-07-31T02:09:13;16.40;99.90
6724;DHT22;3399;52.530;13.304;2023-07-31T02:11:38;16.50;99.90
6724;DHT22;3399;52.530;13.304;2023-07-31T02:14:04;16.50;99.90
6724;DHT22;3399;52.530;13.304;2023-07-31T02:16:29;16.70;99.90
6724;DHT22;3399;52.530;13.304;2023-07-31T02:18:54;16.70;99.90
6724;DHT22;3399;52.530;13.304;2023-07-31T02:21:20;16.70;99.90
6724;DHT22;3399;52.530;13.304;2023-07-31T02:23:45;16.80;99.90
6724;DHT22;3399;52.530;13.304;2023-07-31T02:26:11;16.90;99.90
6724;DHT22;3399;52.530;13.304;2023-07-31T02:28:36;17.00;99.90
6724;DHT22;3399;52.530;13.304;2023-07-31T02:31:02;17.10;99.90
6724;DHT22;3399;52.530;13.304;2023-07-31T02:33:28;17.00;99.90
6724;DHT22;3399;52.530;13.304;2023-07-31T02:35:53;17.00;99.90
6724;DHT22;3399;52.530;13.304;2023-07-31T02:38:19;17.00;99.90
6724;DHT22;3399;52.530;13.304;2023-07-31T02:40:44;16.90;99.90
6724;DHT22;3399;52.530;13.304;2023-07-31T02:43:10;16.90;99.90
6724;DHT22;3399;52.530;13.304;2023-07-31T02:45:35;16.90;99.90
6724;DHT22;3399;52.530;13.304;2023-07-31T02:48:01;17.00;99.90
6724;DHT22;3399;52.530;13.304;2023-07-31T02:50:26;17.00;99.90
6724;DHT22;3399;52.530;13.304;2023-07-31T02:52:53;16.90;99.90
6724;DHT22;3399;52.530;13.304;2023-07-31T02:55:18;17.00;99.90
6724;DHT22;3399;52.530;13.304;2023-07-31T02:57:44;17.10;99.90
6724;DHT22;3399;52.530;13.304;2023-07-31T03:00:09;17.00;99.90
6724;DHT22;3399;52.530;13.304;2023-07-31T03:02:35;17.20;99.90
6724;DHT22;3399;52.530;13.304;2023-07-31T03:05:00;17.20;99.90
6724;DHT22;3399;52.530;13.304;2023-07-31T03:07:26;17.20;99.90
6724;DHT22;3399;52.530;13.304;2023-07-31T03:09:51;17.20;99.90
6724;DHT22;3399;52.530;13.304;2023-07-31T03:12:17;17.20;99.90
6724;DHT22;3399;52.530;13.304;2023-07-31T03:14:42;17.20;99.90
6724;DHT22;3399;52.530;13.304;2023-07-31T03:17:08;17.20;99.90
6724;DHT22;3399;52.530;13.304;2023-07-31T03:19:33;17.10;99.90
6724;DHT22;3399;52.530;13.304;2023-07-31T03:21:59;17.10;99.90
6724;DHT22;3399;52.530;13.304;2023-07-31T03:24:25;17.10;99.90
6724;DHT22;3399;52.530;13.304;2023-07-31T03:26:51;17.00;99.90
6724;DHT22;3399;52.530;13.304;2023-07-31T03:29:16;16.90;99.90
6724;DHT22;3399;52.530;13.304;2023-07-31T03:31:42;16.90;99.90
6724;DHT22;3399;52.530;13.304;2023-07-31T03:34:07;17.00;99.90
6724;DHT22;3399;52.530;13.304;2023-07-31T03:36:33;17.00;99.90
6724;DHT22;3399;52.530;13.304;2023-07-31T03:38:58;16.90;99.90
6724;DHT22;3399;52.530;13.304;2023-07-31T03:41:24;16.90;99.90
6724;DHT22;3399;52.530;13.304;2023-07-31T03:43:51;16.90;99.90
6724;DHT22;3399;52.530;13.304;2023-07-31T03:46:23;17.00;99.90
6724;DHT22;3399;52.530;13.304;2023-07-31T03:48:49;17.00;99.90
6724;DHT22;3399;52.530;13.304;2023-07-31T03:51:15;16.80;99.90
6724;DHT22;3399;52.530;13.304;2023-07-31T03:53:41;16.80;99.90
6724;DHT22;3399;52.530;13.304;2023-07-31T03:56:06;16.80;99.90
6724;DHT22;3399;52.530;13.304;2023-07-31T03:58:31;16.90;99.90
6724;DHT22;3399;52.530;13.304;2023-07-31T04:00:57;16.90;99.90
6724;DHT22;3399;52.530;13.304;2023-07-31T04:03:23;16.80;99.90
6724;DHT22;3399;52.530;13.304;2023-07-31T04:05:48;16.80;99.90
6724;DHT22;3399;52.530;13.304;2023-07-31T04:08:13;16.80;99.90
6724;DHT22;3399;52.530;13.304;2023-07-31T04:10:39;16.80;99.90
6724;DHT22;3399;52.530;13.304;2023-07-31T04:13:04;16.90;99.90
6724;DHT22;3399;52.530;13.304;2023-07-31T04:15:30;16.80;99.90
6724;DHT22;3399;52.530;13.304;2023-07-31T04:17:55;16.80;99.90
6724;DHT22;3399;52.530;13.304;2023-07-31T04:20:21;16.90;99.90
6724;DHT22;3399;52.530;13.304;2023-07-31T04:22:46;16.80;99.90
6724;DHT22;3399;52.530;13.304;2023-07-31T04:25:12;16.80;99.90
6724;DHT22;3399;52.530;13.304;2023-07-31T04:27:37;16.80;99.90
6724;DHT22;3399;52.530;13.304;2023-07-31T04:30:03;16.80;99.90
6724;DHT22;3399;52.530;13.304;2023-07-31T04:32:29;16.70;99.90
6724;DHT22;3399;52.530;13.304;2023-07-31T04:34:55;16.70;99.90
6724;DHT22;3399;52.530;13.304;2023-07-31T04:37:20;16.80;99.90
6724;DHT22;3399;52.530;13.304;2023-07-31T04:39:46;16.80;99.90
6724;DHT22;3399;52.530;13.304;2023-07-31T04:42:12;16.70;99.90
6724;DHT22;3399;52.530;13.304;2023-07-31T04:44:37;16.80;99.90
6724;DHT22;3399;52.530;13.304;2023-07-31T04:47:03;16.80;99.90
6724;DHT22;3399;52.530;13.304;2023-07-31T04:49:28;16.80;99.90
6724;DHT22;3399;52.530;13.304;2023-07-31T04:51:54;16.80;99.90
6724;DHT22;3399;52.530;13.304;2023-07-31T04:54:19;16.70;99.90
6724;DHT22;3399;52.530;13.304;2023-07-31T04:56:45;16.60;99.90
6724;DHT22;3399;52.530;13.304;2023-07-31T04:59:10;16.60;99.90
6724;DHT22;3399;52.530;13.304;2023-07-31T05:01:36;16.60;99.90
6724;DHT22;3399;52.530;13.304;2023-07-31T05:04:01;16.70;99.90
6724;DHT22;3399;52.530;13.304;2023-07-31T05:06:27;16.70;99.90
6724;DHT22;3399;52.530;13.304;2023-07-31T05:08:53;16.60;99.90
6724;DHT22;3399;52.530;13.304;2023-07-31T05:11:18;16.60;99.90
6724;DHT22;3399;52.530;13.304;2023-07-31T05:13:43;16.70;99.90
6724;DHT22;3399;52.530;13.304;2023-07-31T05:16:09;16.80;99.90
6724;DHT22;3399;52.530;13.304;2023-07-31T05:18:34;16.90;99.90
6724;DHT22;3399;52.530;13.304;2023-07-31T05:21:00;16.90;99.90
6724;DHT22;3399;52.530;13.304;2023-07-31T05:23:26;16.90;99.90
6724;DHT22;3399;52.530;13.304;2023-07-31T05:25:51;16.90;99.90
6724;DHT22;3399;52.530;13.304;2023-07-31T05:28:16;16.90;99.90
6724;DHT22;3399;52.530;13.304;2023-07-31T05:30:42;16.90;99.90
6724;DHT22;3399;52.530;13.304;2023-07-31T05:33:07;16.80;99.90
6724;DHT22;3399;52.530;13.304;2023-07-31T05:35:33;16.70;99.90
6724;DHT22;3399;52.530;13.304;2023-07-31T05:37:58;16.90;99.90
6724;DHT22;3399;52.530;13.304;2023-07-31T05:40:24;16.90;99.90
6724;DHT22;3399;52.530;13.304;2023-07-31T05:42:49;17.00;99.90
6724;DHT22;3399;52.530;13.304;2023-07-31T05:45:15;17.10;99.90
6724;DHT22;3399;52.530;13.304;2023-07-31T05:47:40;17.10;99.90
6724;DHT22;3399;52.530;13.304;2023-07-31T05:50:06;17.10;99.90
6724;DHT22;3399;52.530;13.304;2023-07-31T05:52:32;17.10;99.90
6724;DHT22;3399;52.530;13.304;2023-07-31T05:54:57;17.10;99.90
6724;DHT22;3399;52.530;13.304;2023-07-31T05:57:23;17.00;99.90
6724;DHT22;3399;52.530;13.304;2023-07-31T05:59:48;17.10;99.90
6724;DHT22;3399;52.530;13.304;2023-07-31T06:02:14;17.20;99.90
6724;DHT22;3399;52.530;13.304;2023-07-31T06:04:39;17.10;99.90
6724;DHT22;3399;52.530;13.304;2023-07-31T06:07:05;17.10;99.90
6724;DHT22;3399;52.530;13.304;2023-07-31T06:09:30;16.90;99.90
6724;DHT22;3399;52.530;13.304;2023-07-31T06:11:56;16.90;99.90
6724;DHT22;3399;52.530;13.304;2023-07-31T06:14:22;17.00;99.90
6724;DHT22;3399;52.530;13.304;2023-07-31T06:16:47;17.00;99.90
6724;DHT22;3399;52.530;13.304;2023-07-31T06:19:13;17.10;99.90
6724;DHT22;3399;52.530;13.304;2023-07-31T06:21:38;17.10;99.90
6724;DHT22;3399;52.530;13.304;2023-07-31T06:24:05;17.10;99.90
6724;DHT22;3399;52.530;13.304;2023-07-31T06:26:31;16.90;99.90
6724;DHT22;3399;52.530;13.304;2023-07-31T06:28:56;16.90;99.90
6724;DHT22;3399;52.530;13.304;2023-07-31T06:31:22;17.00;99.90
6724;DHT22;3399;52.530;13.304;2023-07-31T06:33:51;17.10;99.90
6724;DHT22;3399;52.530;13.304;2023-07-31T06:36:17;17.20;99.90
6724;DHT22;3399;52.530;13.304;2023-07-31T06:38:42;17.20;99.90
6724;DHT22;3399;52.530;13.304;2023-07-31T06:41:07;17.30;99.90
6724;DHT22;3399;52.530;13.304;2023-07-31T06:43:33;17.30;99.90
6724;DHT22;3399;52.530;13.304;2023-07-31T06:46:07;17.30;99.90
6724;DHT22;3399;52.530;13.304;2023-07-31T06:48:35;17.40;99.90
6724;DHT22;3399;52.530;13.304;2023-07-31T06:51:02;17.40;99.90
6724;DHT22;3399;52.530;13.304;2023-07-31T06:53:28;17.50;99.90
6724;DHT22;3399;52.530;13.304;2023-07-31T06:55:54;17.50;99.90
6724;DHT22;3399;52.530;13.304;2023-07-31T06:58:20;17.50;99.90
6724;DHT22;3399;52.530;13.304;2023-07-31T07:00:45;17.60;99.90
6724;DHT22;3399;52.530;13.304;2023-07-31T07:03:11;17.60;99.90
6724;DHT22;3399;52.530;13.304;2023-07-31T07:05:36;17.60;99.90
6724;DHT22;3399;52.530;13.304;2023-07-31T07:08:02;17.50;99.90
6724;DHT22;3399;52.530;13.304;2023-07-31T07:10:28;17.50;99.90
6724;DHT22;3399;52.530;13.304;2023-07-31T07:12:54;17.40;99.90
6724;DHT22;3399;52.530;13.304;2023-07-31T07:15:20;17.30;99.90
6724;DHT22;3399;52.530;13.304;2023-07-31T07:17:46;17.20;99.90
6724;DHT22;3399;52.530;13.304;2023-07-31T07:20:12;17.20;99.90
6724;DHT22;3399;52.530;13.304;2023-07-31T07:22:37;17.20;99.90
6724;DHT22;3399;52.530;13.304;2023-07-31T07:25:04;17.20;99.90
6724;DHT22;3399;52.530;13.304;2023-07-31T07:27:30;17.20;99.90
6724;DHT22;3399;52.530;13.304;2023-07-31T07:29:55;17.20;99.90
6724;DHT22;3399;52.530;13.304;2023-07-31T07:32:21;17.10;99.90
6724;DHT22;3399;52.530;13.304;2023-07-31T07:34:47;17.20;99.90
6724;DHT22;3399;52.530;13.304;2023-07-31T07:37:13;17.30;99.90
6724;DHT22;3399;52.530;13.304;2023-07-31T07:39:38;17.30;99.90
6724;DHT22;3399;52.530;13.304;2023-07-31T07:42:04;17.30;99.90
6724;DHT22;3399;52.530;13.304;2023-07-31T07:44:29;17.30;99.90
6724;DHT22;3399;52.530;13.304;2023-07-31T07:46:55;17.40;99.90
6724;DHT22;3399;52.530;13.304;2023-07-31T07:49:20;17.20;99.90
6724;DHT22;3399;52.530;13.304;2023-07-31T07:51:48;17.20;99.90
6724;DHT22;3399;52.530;13.304;2023-07-31T07:54:13;17.10;99.90
6724;DHT22;3399;52.530;13.304;2023-07-31T07:56:39;17.20;99.90
6724;DHT22;3399;52.530;13.304;2023-07-31T07:59:04;17.20;99.90
6724;DHT22;3399;52.530;13.304;2023-07-31T08:01:30;17.20;99.90
6724;DHT22;3399;52.530;13.304;2023-07-31T08:03:55;17.30;99.90
6724;DHT22;3399;52.530;13.304;2023-07-31T08:06:21;17.20;99.90
6724;DHT22;3399;52.530;13.304;2023-07-31T08:08:47;17.30;99.90
6724;DHT22;3399;52.530;13.304;2023-07-31T08:11:13;17.30;99.90
6724;DHT22;3399;52.530;13.304;2023-07-31T08:13:38;17.30;99.90
6724;DHT22;3399;52.530;13.304;2023-07-31T08:16:04;17.30;99.90
6724;DHT22;3399;52.530;13.304;2023-07-31T08:18:31;17.30;99.90
6724;DHT22;3399;52.530;13.304;2023-07-31T08:20:56;17.40;99.90
6724;DHT22;3399;52.530;13.304;2023-07-31T08:23:22;17.40;99.90
6724;DHT22;3399;52.530;13.304;2023-07-31T08:25:47;17.40;99.90
6724;DHT22;3399;52.530;13.304;2023-07-31T08:28:15;17.40;99.90
6724;DHT22;3399;52.530;13.304;2023-07-31T08:30:40;17.50;99.90
6724;DHT22;3399;52.530;13.304;2023-07-31T08:33:06;17.30;99.90
6724;DHT22;3399;52.530;13.304;2023-07-31T08:35:32;17.40;99.90
6724;DHT22;3399;52.530;13.304;2023-07-31T08:37:57;17.50;99.90
6724;DHT22;3399;52.530;13.304;2023-07-31T08:40:23;17.50;99.90
6724;DHT22;3399;52.530;13.304;2023-07-31T08:42:51;17.50;99.90
6724;DHT22;3399;52.530;13.304;2023-07-31T08:45:19;17.50;99.90
6724;DHT22;3399;52.530;13.304;2023-07-31T08:47:47;17.50;99.90
6724;DHT22;3399;52.530;13.304;2023-07-31T08:50:14;17.60;99.90
6724;DHT22;3399;52.530;13.304;2023-07-31T08:52:40;17.70;99.90
6724;DHT22;3399;52.530;13.304;2023-07-31T08:55:06;17.70;99.90
6724;DHT22;3399;52.530;13.304;2023-07-31T08:57:35;17.70;99.90
6724;DHT22;3399;52.530;13.304;2023-07-31T09:00:01;17.80;99.90
6724;DHT22;3399;52.530;13.304;2023-07-31T09:02:34;17.80;99.90
6724;DHT22;3399;52.530;13.304;2023-07-31T09:05:01;17.90;99.90
6724;DHT22;3399;52.530;13.304;2023-07-31T09:07:28;18.00;99.90
6724;DHT22;3399;52.530;13.304;2023-07-31T09:09:54;18.10;99.90
6724;DHT22;3399;52.530;13.304;2023-07-31T09:12:19;18.10;99.90
6724;DHT22;3399;52.530;13.304;2023-07-31T09:14:45;18.20;99.90
6724;DHT22;3399;52.530;13.304;2023-07-31T09:17:11;18.10;99.90
6724;DHT22;3399;52.530;13.304;2023-07-31T09:19:37;18.00;99.90
6724;DHT22;3399;52.530;13.304;2023-07-31T09:22:06;18.00;99.90
6724;DHT22;3399;52.530;13.304;2023-07-31T09:24:34;18.00;99.90
6724;DHT22;3399;52.530;13.304;2023-07-31T09:27:01;17.90;99.90
6724;DHT22;3399;52.530;13.304;2023-07-31T09:29:29;17.80;99.90
6724;DHT22;3399;52.530;13.304;2023-07-31T09:31:55;17.80;99.90
6724;DHT22;3399;52.530;13.304;2023-07-31T09:34:36;17.70;99.90
6724;DHT22;3399;52.530;13.304;2023-07-31T09:37:03;17.70;99.90
6724;DHT22;3399;52.530;13.304;2023-07-31T09:39:30;17.80;99.90
6724;DHT22;3399;52.530;13.304;2023-07-31T09:41:56;17.70;99.90
6724;DHT22;3399;52.530;13.304;2023-07-31T09:44:28;17.60;99.90
6724;DHT22;3399;52.530;13.304;2023-07-31T09:47:02;17.70;99.90
6724;DHT22;3399;52.530;13.304;2023-07-31T09:49:28;17.80;99.90
6724;DHT22;3399;52.530;13.304;2023-07-31T09:51:54;17.70;99.90
6724;DHT22;3399;52.530;13.304;2023-07-31T09:54:19;17.80;99.90
6724;DHT22;3399;52.530;13.304;2023-07-31T09:56:47;17.80;99.90
6724;DHT22;3399;52.530;13.304;2023-07-31T09:59:18;17.80;99.90
6724;DHT22;3399;52.530;13.304;2023-07-31T10:01:45;17.90;99.90
6724;DHT22;3399;52.530;13.304;2023-07-31T10:04:12;18.00;99.90
6724;DHT22;3399;52.530;13.304;2023-07-31T10:06:40;18.00;99.90
6724;DHT22;3399;52.530;13.304;2023-07-31T10:09:08;18.10;99.90
6724;DHT22;3399;52.530;13.304;2023-07-31T10:11:38;18.20;99.90
6724;DHT22;3399;52.530;13.304;2023-07-31T10:14:05;18.30;99.90
6724;DHT22;3399;52.530;13.304;2023-07-31T10:16:31;18.30;99.90
6724;DHT22;3399;52.530;13.304;2023-07-31T10:18:57;18.30;99.90
6724;DHT22;3399;52.530;13.304;2023-07-31T10:21:23;18.30;99.90
6724;DHT22;3399;52.530;13.304;2023-07-31T10:23:49;18.30;99.90
6724;DHT22;3399;52.530;13.304;2023-07-31T10:26:17;18.30;99.90
6724;DHT22;3399;52.530;13.304;2023-07-31T10:28:45;18.20;99.90
6724;DHT22;3399;52.530;13.304;2023-07-31T10:31:12;18.30;99.90
6724;DHT22;3399;52.530;13.304;2023-07-31T10:33:38;18.40;99.90
6724;DHT22;3399;52.530;13.304;2023-07-31T10:36:20;18.50;99.90
6724;DHT22;3399;52.530;13.304;2023-07-31T10:38:48;18.50;99.90
6724;DHT22;3399;52.530;13.304;2023-07-31T10:41:14;18.50;99.90
6724;DHT22;3399;52.530;13.304;2023-07-31T10:43:40;18.70;99.90
6724;DHT22;3399;52.530;13.304;2023-07-31T10:46:11;18.80;99.90
6724;DHT22;3399;52.530;13.304;2023-07-31T10:48:39;19.00;99.90
6724;DHT22;3399;52.530;13.304;2023-07-31T10:51:10;19.20;99.90
6724;DHT22;3399;52.530;13.304;2023-07-31T10:53:38;19.30;99.90
6724;DHT22;3399;52.530;13.304;2023-07-31T10:56:10;19.40;99.90
6724;DHT22;3399;52.530;13.304;2023-07-31T10:58:39;19.60;99.90
6724;DHT22;3399;52.530;13.304;2023-07-31T11:01:05;19.70;99.90
6724;DHT22;3399;52.530;13.304;2023-07-31T11:03:48;19.80;99.90
6724;DHT22;3399;52.530;13.304;2023-07-31T11:06:15;20.00;99.90
6724;DHT22;3399;52.530;13.304;2023-07-31T11:08:49;20.10;99.90
6724;DHT22;3399;52.530;13.304;2023-07-31T11:11:16;20.20;99.90
6724;DHT22;3399;52.530;13.304;2023-07-31T11:13:44;20.20;99.90
6724;DHT22;3399;52.530;13.304;2023-07-31T11:16:13;20.10;99.90
6724;DHT22;3399;52.530;13.304;2023-07-31T11:18:42;20.00;99.90
6724;DHT22;3399;52.530;13.304;2023-07-31T11:21:11;20.00;99.90
6724;DHT22;3399;52.530;13.304;2023-07-31T11:23:37;20.10;99.90
6724;DHT22;3399;52.530;13.304;2023-07-31T11:26:05;20.20;99.90
6724;DHT22;3399;52.530;13.304;2023-07-31T11:28:35;20.20;99.90
6724;DHT22;3399;52.530;13.304;2023-07-31T11:31:01;20.10;99.90
6724;DHT22;3399;52.530;13.304;2023-07-31T11:33:27;20.00;99.90
6724;DHT22;3399;52.530;13.304;2023-07-31T11:35:53;20.00;99.90
6724;DHT22;3399;52.530;13.304;2023-07-31T11:38:29;20.00;99.90
6724;DHT22;3399;52.530;13.304;2023-07-31T11:41:00;20.00;99.90
6724;DHT22;3399;52.530;13.304;2023-07-31T11:43:28;20.10;99.90
6724;DHT22;3399;52.530;13.304;2023-07-31T11:45:55;20.00;99.90
6724;DHT22;3399;52.530;13.304;2023-07-31T11:48:31;20.00;99.90
6724;DHT22;3399;52.530;13.304;2023-07-31T11:51:05;20.00;99.90
6724;DHT22;3399;52.530;13.304;2023-07-31T11:53:40;19.90;99.90
6724;DHT22;3399;52.530;13.304;2023-07-31T11:56:08;20.00;99.90
6724;DHT22;3399;52.530;13.304;2023-07-31T11:58:36;20.10;99.90
6724;DHT22;3399;52.530;13.304;2023-07-31T12:01:02;20.00;99.90
6724;DHT22;3399;52.530;13.304;2023-07-31T12:03:29;20.10;99.90
6724;DHT22;3399;52.530;13.304;2023-07-31T12:05:54;20.10;99.90
6724;DHT22;3399;52.530;13.304;2023-07-31T12:08:21;20.10;99.90
6724;DHT22;3399;52.530;13.304;2023-07-31T12:10:50;20.10;99.90
6724;DHT22;3399;52.530;13.304;2023-07-31T12:13:25;20.10;99.90
6724;DHT22;3399;52.530;13.304;2023-07-31T12:16:00;20.10;99.90
6724;DHT22;3399;52.530;13.304;2023-07-31T12:18:30;20.20;99.90
6724;DHT22;3399;52.530;13.304;2023-07-31T12:20:57;20.30;99.90
6724;DHT22;3399;52.530;13.304;2023-07-31T12:23:26;20.50;99.90
6724;DHT22;3399;52.530;13.304;2023-07-31T12:28:30;20.60;99.90
6724;DHT22;3399;52.530;13.304;2023-07-31T12:30:59;20.70;99.90
6724;DHT22;3399;52.530;13.304;2023-07-31T12:33:34;20.70;99.90
6724;DHT22;3399;52.530;13.304;2023-07-31T12:36:04;20.70;99.90
6724;DHT22;3399;52.530;13.304;2023-07-31T12:38:30;20.80;99.90
6724;DHT22;3399;52.530;13.304;2023-07-31T12:40:56;20.80;99.90
6724;DHT22;3399;52.530;13.304;2023-07-31T12:43:21;20.90;99.90
6724;DHT22;3399;52.530;13.304;2023-07-31T12:45:47;21.00;99.90
6724;DHT22;3399;52.530;13.304;2023-07-31T12:48:13;21.10;99.90
6724;DHT22;3399;52.530;13.304;2023-07-31T12:50:39;21.10;99.90
6724;DHT22;3399;52.530;13.304;2023-07-31T12:53:05;21.10;99.90
6724;DHT22;3399;52.530;13.304;2023-07-31T12:55:30;21.00;99.90
6724;DHT22;3399;52.530;13.304;2023-07-31T12:57:56;20.90;99.90
6724;DHT22;3399;52.530;13.304;2023-07-31T13:00:22;20.80;99.90
6724;DHT22;3399;52.530;13.304;2023-07-31T13:02:48;20.80;99.90
6724;DHT22;3399;52.530;13.304;2023-07-31T13:05:13;20.90;99.90
6724;DHT22;3399;52.530;13.304;2023-07-31T13:07:39;20.60;99.90
6724;DHT22;3399;52.530;13.304;2023-07-31T13:10:06;20.30;99.90
6724;DHT22;3399;52.530;13.304;2023-07-31T13:12:32;20.30;99.90
6724;DHT22;3399;52.530;13.304;2023-07-31T13:14:58;20.30;99.90
6724;DHT22;3399;52.530;13.304;2023-07-31T13:17:24;20.30;99.90
6724;DHT22;3399;52.530;13.304;2023-07-31T13:19:49;20.40;99.90
6724;DHT22;3399;52.530;13.304;2023-07-31T13:22:15;20.40;99.90
6724;DHT22;3399;52.530;13.304;2023-07-31T13:24:41;20.70;99.90
6724;DHT22;3399;52.530;13.304;2023-07-31T13:27:06;20.80;99.90
6724;DHT22;3399;52.530;13.304;2023-07-31T13:29:32;20.70;99.90
6724;DHT22;3399;52.530;13.304;2023-07-31T13:31:57;20.90;99.90
6724;DHT22;3399;52.530;13.304;2023-07-31T13:34:23;20.90;99.90
6724;DHT22;3399;52.530;13.304;2023-07-31T13:36:49;21.00;99.90
6724;DHT22;3399;52.530;13.304;2023-07-31T13:39:14;21.20;99.90
6724;DHT22;3399;52.530;13.304;2023-07-31T13:41:40;21.40;99.90
6724;DHT22;3399;52.530;13.304;2023-07-31T13:44:05;21.40;99.90
6724;DHT22;3399;52.530;13.304;2023-07-31T13:46:31;21.50;99.90
6724;DHT22;3399;52.530;13.304;2023-07-31T13:49:00;21.60;99.90
6724;DHT22;3399;52.530;13.304;2023-07-31T13:51:27;21.60;99.90
6724;DHT22;3399;52.530;13.304;2023-07-31T13:53:53;21.60;99.90
6724;DHT22;3399;52.530;13.304;2023-07-31T13:56:18;21.60;99.90
6724;DHT22;3399;52.530;13.304;2023-07-31T13:58:44;21.60;99.90
6724;DHT22;3399;52.530;13.304;2023-07-31T14:01:10;21.50;99.90
6724;DHT22;3399;52.530;13.304;2023-07-31T14:03:35;21.30;99.90
6724;DHT22;3399;52.530;13.304;2023-07-31T14:06:01;21.30;99.90
6724;DHT22;3399;52.530;13.304;2023-07-31T14:08:26;21.30;99.90
6724;DHT22;3399;52.530;13.304;2023-07-31T14:10:52;21.30;99.90
6724;DHT22;3399;52.530;13.304;2023-07-31T14:13:17;21.30;99.90
6724;DHT22;3399;52.530;13.304;2023-07-31T14:15:43;21.30;99.90
6724;DHT22;3399;52.530;13.304;2023-07-31T14:18:09;21.30;99.90
6724;DHT22;3399;52.530;13.304;2023-07-31T14:20:35;21.40;99.90
6724;DHT22;3399;52.530;13.304;2023-07-31T14:23:01;21.40;99.90
6724;DHT22;3399;52.530;13.304;2023-07-31T14:25:27;21.40;99.90
6724;DHT22;3399;52.530;13.304;2023-07-31T14:27:53;21.40;99.90
6724;DHT22;3399;52.530;13.304;2023-07-31T14:30:18;21.40;99.90
6724;DHT22;3399;52.530;13.304;2023-07-31T14:32:44;21.40;99.90
6724;DHT22;3399;52.530;13.304;2023-07-31T14:35:09;21.50;99.90
6724;DHT22;3399;52.530;13.304;2023-07-31T14:37:43;21.50;99.90
6724;DHT22;3399;52.530;13.304;2023-07-31T14:40:11;21.50;99.90
6724;DHT22;3399;52.530;13.304;2023-07-31T14:42:37;21.50;99.90
6724;DHT22;3399;52.530;13.304;2023-07-31T14:45:04;21.50;99.90
6724;DHT22;3399;52.530;13.304;2023-07-31T14:47:30;21.40;99.90
6724;DHT22;3399;52.530;13.304;2023-07-31T14:49:59;21.40;99.90
6724;DHT22;3399;52.530;13.304;2023-07-31T14:52:25;21.30;99.90
6724;DHT22;3399;52.530;13.304;2023-07-31T14:54:50;21.30;99.90
6724;DHT22;3399;52.530;13.304;2023-07-31T14:57:16;21.30;99.90
6724;DHT22;3399;52.530;13.304;2023-07-31T14:59:41;21.30;99.90
6724;DHT22;3399;52.530;13.304;2023-07-31T15:02:09;21.20;99.90
6724;DHT22;3399;52.530;13.304;2023-07-31T15:04:35;21.20;99.90
6724;DHT22;3399;52.530;13.304;2023-07-31T15:07:00;21.20;99.90
6724;DHT22;3399;52.530;13.304;2023-07-31T15:09:26;21.20;99.90
6724;DHT22;3399;52.530;13.304;2023-07-31T15:11:51;21.30;99.90
6724;DHT22;3399;52.530;13.304;2023-07-31T15:14:17;21.30;99.90
6724;DHT22;3399;52.530;13.304;2023-07-31T15:16:42;21.20;99.90
6724;DHT22;3399;52.530;13.304;2023-07-31T15:19:08;21.30;99.90
6724;DHT22;3399;52.530;13.304;2023-07-31T15:21:36;21.30;99.90
6724;DHT22;3399;52.530;13.304;2023-07-31T15:24:01;21.30;99.90
6724;DHT22;3399;52.530;13.304;2023-07-31T15:26:27;21.40;99.90
6724;DHT22;3399;52.530;13.304;2023-07-31T15:29:01;21.40;99.90
6724;DHT22;3399;52.530;13.304;2023-07-31T15:31:27;21.30;99.90
6724;DHT22;3399;52.530;13.304;2023-07-31T15:33:53;21.30;99.90
6724;DHT22;3399;52.530;13.304;2023-07-31T15:36:18;21.10;99.90
6724;DHT22;3399;52.530;13.304;2023-07-31T15:38:44;21.10;99.90
6724;DHT22;3399;52.530;13.304;2023-07-31T15:41:09;21.10;99.90
6724;DHT22;3399;52.530;13.304;2023-07-31T15:43:35;21.10;99.90
6724;DHT22;3399;52.530;13.304;2023-07-31T15:46:00;21.00;99.90